sensor_id;sensor_type;location;lat;lon;timestamp;pressure;altitude;pressure_sealevel;temperature;humidity
76827;BME280;65788;52.284;20.890;2023-07-22T00:02:15;99817.77;;;23.74;46.41
76827;BME280;65788;52.284;20.890;2023-07-22T00:04:42;99820.19;;;23.76;46.54
76827;BME280;65788;52.284;20.890;2023-07-22T00:07:08;99817.67;;;23.76;46.56
76827;BME280;65788;52.284;20.890;2023-07-22T00:09:35;99814.52;;;23.77;46.94
76827;BME280;65788;52.284;20.890;2023-07-22T00:12:02;99814.26;;;23.81;47.31
76827;BME280;65788;52.284;20.890;2023-07-22T00:14:30;99815.82;;;23.81;47.07
76827;BME280;65788;52.284;20.890;2023-07-22T00:16:57;99814.85;;;23.84;47.70
76827;BME280;65788;52.284;20.890;2023-07-22T00:19:24;99809.70;;;23.82;47.88
76827;BME280;65788;52.284;20.890;2023-07-22T00:21:50;99810.67;;;23.80;47.62
76827;BME280;65788;52.284;20.890;2023-07-22T00:24:18;99810.68;;;23.80;47.91
76827;BME280;65788;52.284;20.890;2023-07-22T00:26:45;99809.68;;;23.80;48.01
76827;BME280;65788;52.284;20.890;2023-07-22T00:29:12;99807.20;;;23.79;48.11
76827;BME280;65788;52.284;20.890;2023-07-22T00:31:39;99811.11;;;23.80;47.80
76827;BME280;65788;52.284;20.890;2023-07-22T00:34:05;99810.17;;;23.81;47.55
76827;BME280;65788;52.284;20.890;2023-07-22T00:36:34;99809.95;;;23.80;47.61
76827;BME280;65788;52.284;20.890;2023-07-22T00:39:01;99810.71;;;23.76;47.71
76827;BME280;65788;52.284;20.890;2023-07-22T00:41:28;99807.59;;;23.77;47.53
76827;BME280;65788;52.284;20.890;2023-07-22T00:43:55;99808.77;;;23.79;47.32
76827;BME280;65788;52.284;20.890;2023-07-22T00:46:22;99806.07;;;23.77;47.62
76827;BME280;65788;52.284;20.890;2023-07-22T00:48:50;99804.95;;;23.77;47.53
76827;BME280;65788;52.284;20.890;2023-07-22T00:51:17;99805.73;;;23.76;47.46
76827;BME280;65788;52.284;20.890;2023-07-22T00:53:45;99801.59;;;23.75;47.53
76827;BME280;65788;52.284;20.890;2023-07-22T00:56:12;99804.11;;;23.76;47.69
76827;BME280;65788;52.284;20.890;2023-07-22T00:58:39;99805.39;;;23.76;47.85
76827;BME280;65788;52.284;20.890;2023-07-22T01:01:06;99807.61;;;23.75;48.05
76827;BME280;65788;52.284;20.890;2023-07-22T01:03:33;99805.31;;;23.74;48.14
76827;BME280;65788;52.284;20.890;2023-07-22T01:06:02;99802.58;;;23.74;48.24
76827;BME280;65788;52.284;20.890;2023-07-22T01:08:29;99802.63;;;23.74;48.31
76827;BME280;65788;52.284;20.890;2023-07-22T01:10:55;99796.91;;;23.71;48.58
76827;BME280;65788;52.284;20.890;2023-07-22T01:13:22;99788.84;;;23.74;48.50
76827;BME280;65788;52.284;20.890;2023-07-22T01:15:49;99779.73;;;23.73;48.64
76827;BME280;65788;52.284;20.890;2023-07-22T01:18:16;99774.77;;;23.73;48.93
76827;BME280;65788;52.284;20.890;2023-07-22T01:20:44;99774.60;;;23.76;49.04
76827;BME280;65788;52.284;20.890;2023-07-22T01:23:13;99773.77;;;23.78;49.25
76827;BME280;65788;52.284;20.890;2023-07-22T01:25:39;99764.61;;;23.77;49.42
76827;BME280;65788;52.284;20.890;2023-07-22T01:28:10;99767.07;;;23.78;49.76
76827;BME280;65788;52.284;20.890;2023-07-22T01:30:40;99763.77;;;23.76;49.71
76827;BME280;65788;52.284;20.890;2023-07-22T01:33:06;99759.96;;;23.76;49.97
76827;BME280;65788;52.284;20.890;2023-07-22T01:35:34;99759.08;;;23.77;49.72
76827;BME280;65788;52.284;20.890;2023-07-22T01:38:01;99762.05;;;23.77;49.70
76827;BME280;65788;52.284;20.890;2023-07-22T01:40:28;99761.69;;;23.76;49.59
76827;BME280;65788;52.284;20.890;2023-07-22T01:42:55;99759.06;;;23.73;49.25
76827;BME280;65788;52.284;20.890;2023-07-22T01:45:22;99757.86;;;23.70;49.57
76827;BME280;65788;52.284;20.890;2023-07-22T01:47:49;99759.64;;;23.70;49.51
76827;BME280;65788;52.284;20.890;2023-07-22T01:50:16;99757.23;;;23.69;49.48
76827;BME280;65788;52.284;20.890;2023-07-22T01:52:45;99756.50;;;23.69;49.50
76827;BME280;65788;52.284;20.890;2023-07-22T01:55:13;99758.76;;;23.65;50.00
76827;BME280;65788;52.284;20.890;2023-07-22T01:57:41;99758.95;;;23.60;50.25
76827;BME280;65788;52.284;20.890;2023-07-22T02:00:09;99757.58;;;23.69;50.04
76827;BME280;65788;52.284;20.890;2023-07-22T02:02:37;99757.03;;;23.72;50.04
76827;BME280;65788;52.284;20.890;2023-07-22T02:05:04;99754.52;;;23.73;49.83
76827;BME280;65788;52.284;20.890;2023-07-22T02:07:32;99757.48;;;23.74;49.87
76827;BME280;65788;52.284;20.890;2023-07-22T02:09:59;99764.86;;;23.67;50.05
76827;BME280;65788;52.284;20.890;2023-07-22T02:12:26;99769.51;;;23.67;49.96
76827;BME280;65788;52.284;20.890;2023-07-22T02:14:53;99768.98;;;23.52;50.70
76827;BME280;65788;52.284;20.890;2023-07-22T02:17:21;99773.96;;;23.40;51.18
76827;BME280;65788;52.284;20.890;2023-07-22T02:19:48;99762.44;;;23.57;50.77
76827;BME280;65788;52.284;20.890;2023-07-22T02:22:16;99762.28;;;23.65;50.65
76827;BME280;65788;52.284;20.890;2023-07-22T02:24:42;99762.67;;;23.59;50.68
76827;BME280;65788;52.284;20.890;2023-07-22T02:27:09;99764.05;;;23.64;50.51
76827;BME280;65788;52.284;20.890;2023-07-22T02:29:36;99777.32;;;23.41;51.25
76827;BME280;65788;52.284;20.890;2023-07-22T02:32:03;99773.25;;;23.49;50.93
76827;BME280;65788;52.284;20.890;2023-07-22T02:34:31;99766.05;;;23.60;50.59
76827;BME280;65788;52.284;20.890;2023-07-22T02:36:58;99760.76;;;23.62;50.43
76827;BME280;65788;52.284;20.890;2023-07-22T02:39:25;99756.73;;;23.62;50.35
76827;BME280;65788;52.284;20.890;2023-07-22T02:41:52;99749.70;;;23.62;50.28
76827;BME280;65788;52.284;20.890;2023-07-22T02:44:18;99750.30;;;23.62;50.05
76827;BME280;65788;52.284;20.890;2023-07-22T02:46:47;99748.34;;;23.60;50.14
76827;BME280;65788;52.284;20.890;2023-07-22T02:49:15;99741.98;;;23.63;50.09
76827;BME280;65788;52.284;20.890;2023-07-22T02:51:41;99741.65;;;23.62;50.07
76827;BME280;65788;52.284;20.890;2023-07-22T02:54:08;99742.80;;;23.61;50.05
76827;BME280;65788;52.284;20.890;2023-07-22T02:56:36;99740.40;;;23.61;50.03
76827;BME280;65788;52.284;20.890;2023-07-22T02:59:02;99741.58;;;23.61;50.04
76827;BME280;65788;52.284;20.890;2023-07-22T03:01:29;99741.79;;;23.59;50.08
76827;BME280;65788;52.284;20.890;2023-07-22T03:03:56;99742.00;;;23.58;50.30
76827;BME280;65788;52.284;20.890;2023-07-22T03:06:23;99748.03;;;23.58;50.26
76827;BME280;65788;52.284;20.890;2023-07-22T03:08:50;99751.92;;;23.56;50.36
76827;BME280;65788;52.284;20.890;2023-07-22T03:11:18;99751.09;;;23.56;50.40
76827;BME280;65788;52.284;20.890;2023-07-22T03:13:45;99748.24;;;23.54;50.46
76827;BME280;65788;52.284;20.890;2023-07-22T03:16:12;99744.33;;;23.56;50.31
76827;BME280;65788;52.284;20.890;2023-07-22T03:18:42;99741.89;;;23.57;50.32
76827;BME280;65788;52.284;20.890;2023-07-22T03:21:09;99745.58;;;23.57;50.37
76827;BME280;65788;52.284;20.890;2023-07-22T03:23:36;99740.73;;;23.55;50.47
76827;BME280;65788;52.284;20.890;2023-07-22T03:26:05;99744.10;;;23.56;50.50
76827;BME280;65788;52.284;20.890;2023-07-22T03:28:31;99745.98;;;23.52;50.69
76827;BME280;65788;52.284;20.890;2023-07-22T03:30:58;99746.33;;;23.48;50.93
76827;BME280;65788;52.284;20.890;2023-07-22T03:33:25;99749.16;;;23.46;50.99
76827;BME280;65788;52.284;20.890;2023-07-22T03:35:52;99752.11;;;23.45;50.99
76827;BME280;65788;52.284;20.890;2023-07-22T03:38:19;99747.17;;;23.48;50.86
76827;BME280;65788;52.284;20.890;2023-07-22T03:40:46;99747.20;;;23.51;50.79
76827;BME280;65788;52.284;20.890;2023-07-22T03:43:14;99744.18;;;23.52;50.68
76827;BME280;65788;52.284;20.890;2023-07-22T03:45:41;99744.97;;;23.52;50.68
76827;BME280;65788;52.284;20.890;2023-07-22T03:48:08;99752.85;;;23.52;50.65
76827;BME280;65788;52.284;20.890;2023-07-22T03:50:35;99754.61;;;23.51;50.72
76827;BME280;65788;52.284;20.890;2023-07-22T03:53:02;99755.97;;;23.52;50.79
76827;BME280;65788;52.284;20.890;2023-07-22T03:55:29;99756.52;;;23.51;50.73
76827;BME280;65788;52.284;20.890;2023-07-22T03:57:56;99759.71;;;23.53;50.71
76827;BME280;65788;52.284;20.890;2023-07-22T04:00:25;99759.71;;;23.52;50.74
76827;BME280;65788;52.284;20.890;2023-07-22T04:03:01;99759.13;;;23.49;50.82
76827;BME280;65788;52.284;20.890;2023-07-22T04:05:35;99761.02;;;23.49;50.80
76827;BME280;65788;52.284;20.890;2023-07-22T04:08:01;99762.04;;;23.49;50.90
76827;BME280;65788;52.284;20.890;2023-07-22T04:10:28;99762.35;;;23.47;51.03
76827;BME280;65788;52.284;20.890;2023-07-22T04:12:55;99767.23;;;23.32;51.80
76827;BME280;65788;52.284;20.890;2023-07-22T04:15:22;99768.31;;;23.17;52.55
76827;BME280;65788;52.284;20.890;2023-07-22T04:17:49;99767.46;;;23.16;52.68
76827;BME280;65788;52.284;20.890;2023-07-22T04:20:16;99763.44;;;23.12;52.77
76827;BME280;65788;52.284;20.890;2023-07-22T04:22:44;99764.31;;;23.05;53.16
76827;BME280;65788;52.284;20.890;2023-07-22T04:25:11;99759.39;;;22.89;53.82
76827;BME280;65788;52.284;20.890;2023-07-22T04:27:38;99767.06;;;22.97;53.52
76827;BME280;65788;52.284;20.890;2023-07-22T04:30:05;99765.02;;;22.94;53.83
76827;BME280;65788;52.284;20.890;2023-07-22T04:32:33;99768.58;;;22.78;54.54
76827;BME280;65788;52.284;20.890;2023-07-22T04:35:00;99767.48;;;22.53;55.40
76827;BME280;65788;52.284;20.890;2023-07-22T04:37:27;99765.12;;;22.31;56.02
76827;BME280;65788;52.284;20.890;2023-07-22T04:39:55;99765.92;;;22.26;56.26
76827;BME280;65788;52.284;20.890;2023-07-22T04:42:22;99769.34;;;22.30;56.19
76827;BME280;65788;52.284;20.890;2023-07-22T04:44:49;99768.16;;;22.33;55.85
76827;BME280;65788;52.284;20.890;2023-07-22T04:47:15;99774.45;;;22.33;55.81
76827;BME280;65788;52.284;20.890;2023-07-22T04:49:42;99776.09;;;22.20;55.93
76827;BME280;65788;52.284;20.890;2023-07-22T04:52:09;99784.21;;;22.11;56.16
76827;BME280;65788;52.284;20.890;2023-07-22T04:54:36;99784.73;;;22.05;56.28
76827;BME280;65788;52.284;20.890;2023-07-22T04:57:03;99785.40;;;22.05;56.43
76827;BME280;65788;52.284;20.890;2023-07-22T04:59:30;99785.38;;;22.14;55.96
76827;BME280;65788;52.284;20.890;2023-07-22T05:01:57;99792.27;;;22.24;55.64
76827;BME280;65788;52.284;20.890;2023-07-22T05:04:23;99798.55;;;22.16;55.87
76827;BME280;65788;52.284;20.890;2023-07-22T05:06:51;99804.10;;;22.03;56.05
76827;BME280;65788;52.284;20.890;2023-07-22T05:09:17;99807.02;;;22.08;55.92
76827;BME280;65788;52.284;20.890;2023-07-22T05:11:44;99807.30;;;22.09;55.82
76827;BME280;65788;52.284;20.890;2023-07-22T05:14:11;99810.39;;;22.14;55.50
76827;BME280;65788;52.284;20.890;2023-07-22T05:16:38;99813.42;;;22.26;55.06
76827;BME280;65788;52.284;20.890;2023-07-22T05:19:05;99815.63;;;22.24;55.18
76827;BME280;65788;52.284;20.890;2023-07-22T05:21:32;99821.00;;;22.23;55.20
76827;BME280;65788;52.284;20.890;2023-07-22T05:23:58;99826.06;;;22.14;55.56
76827;BME280;65788;52.284;20.890;2023-07-22T05:26:27;99826.14;;;22.16;55.67
76827;BME280;65788;52.284;20.890;2023-07-22T05:28:53;99824.56;;;22.47;54.28
76827;BME280;65788;52.284;20.890;2023-07-22T05:31:20;99822.25;;;22.52;54.12
76827;BME280;65788;52.284;20.890;2023-07-22T05:33:47;99824.23;;;22.52;54.41
76827;BME280;65788;52.284;20.890;2023-07-22T05:36:15;99819.86;;;22.42;54.92
76827;BME280;65788;52.284;20.890;2023-07-22T05:38:41;99824.70;;;22.33;55.37
76827;BME280;65788;52.284;20.890;2023-07-22T05:41:08;99823.67;;;22.19;55.89
76827;BME280;65788;52.284;20.890;2023-07-22T05:43:35;99824.06;;;22.19;55.91
76827;BME280;65788;52.284;20.890;2023-07-22T05:46:02;99822.06;;;22.23;55.66
76827;BME280;65788;52.284;20.890;2023-07-22T05:48:29;99824.98;;;22.23;55.77
76827;BME280;65788;52.284;20.890;2023-07-22T05:50:55;99825.08;;;22.19;55.84
76827;BME280;65788;52.284;20.890;2023-07-22T05:53:22;99825.14;;;22.05;56.02
76827;BME280;65788;52.284;20.890;2023-07-22T05:55:49;99830.92;;;22.09;56.23
76827;BME280;65788;52.284;20.890;2023-07-22T05:58:17;99831.38;;;22.05;56.13
76827;BME280;65788;52.284;20.890;2023-07-22T06:00:44;99830.67;;;22.10;55.91
76827;BME280;65788;52.284;20.890;2023-07-22T06:03:11;99834.55;;;22.12;55.82
76827;BME280;65788;52.284;20.890;2023-07-22T06:05:39;99830.15;;;22.30;55.33
76827;BME280;65788;52.284;20.890;2023-07-22T06:08:06;99828.04;;;22.36;55.09
76827;BME280;65788;52.284;20.890;2023-07-22T06:10:33;99827.52;;;22.47;54.86
76827;BME280;65788;52.284;20.890;2023-07-22T06:13:00;99825.70;;;22.59;54.31
76827;BME280;65788;52.284;20.890;2023-07-22T06:15:26;99822.42;;;22.53;54.66
76827;BME280;65788;52.284;20.890;2023-07-22T06:17:53;99820.07;;;22.30;55.46
76827;BME280;65788;52.284;20.890;2023-07-22T06:20:20;99825.19;;;22.26;55.60
76827;BME280;65788;52.284;20.890;2023-07-22T06:22:47;99824.52;;;22.33;55.30
76827;BME280;65788;52.284;20.890;2023-07-22T06:25:14;99829.45;;;22.45;54.88
76827;BME280;65788;52.284;20.890;2023-07-22T06:27:41;99826.52;;;22.76;54.22
76827;BME280;65788;52.284;20.890;2023-07-22T06:30:08;99825.99;;;22.44;55.75
76827;BME280;65788;52.284;20.890;2023-07-22T06:32:39;99824.90;;;22.52;54.39
76827;BME280;65788;52.284;20.890;2023-07-22T06:35:07;99830.80;;;22.98;53.21
76827;BME280;65788;52.284;20.890;2023-07-22T06:37:34;99834.91;;;21.93;57.22
76827;BME280;65788;52.284;20.890;2023-07-22T06:40:01;99836.48;;;22.14;56.41
76827;BME280;65788;52.284;20.890;2023-07-22T06:42:29;99835.30;;;22.78;53.72
76827;BME280;65788;52.284;20.890;2023-07-22T06:44:56;99836.34;;;22.77;53.61
76827;BME280;65788;52.284;20.890;2023-07-22T06:47:23;99838.45;;;22.98;53.37
76827;BME280;65788;52.284;20.890;2023-07-22T06:49:50;99843.63;;;21.96;56.85
76827;BME280;65788;52.284;20.890;2023-07-22T06:52:20;99845.39;;;22.03;56.41
76827;BME280;65788;52.284;20.890;2023-07-22T06:54:47;99846.23;;;22.70;53.87
76827;BME280;65788;52.284;20.890;2023-07-22T06:57:13;99850.86;;;22.18;55.61
76827;BME280;65788;52.284;20.890;2023-07-22T06:59:40;99856.38;;;22.77;53.60
76827;BME280;65788;52.284;20.890;2023-07-22T07:02:08;99855.83;;;22.78;53.60
76827;BME280;65788;52.284;20.890;2023-07-22T07:04:35;99852.15;;;22.96;52.60
76827;BME280;65788;52.284;20.890;2023-07-22T07:07:02;99848.61;;;23.10;52.11
76827;BME280;65788;52.284;20.890;2023-07-22T07:09:29;99851.45;;;23.29;51.49
76827;BME280;65788;52.284;20.890;2023-07-22T07:11:56;99859.10;;;23.33;50.88
76827;BME280;65788;52.284;20.890;2023-07-22T07:14:24;99863.09;;;23.30;50.92
76827;BME280;65788;52.284;20.890;2023-07-22T07:16:53;99862.33;;;23.33;50.55
76827;BME280;65788;52.284;20.890;2023-07-22T07:19:20;99865.92;;;23.26;51.06
76827;BME280;65788;52.284;20.890;2023-07-22T07:21:47;99872.59;;;23.13;51.47
76827;BME280;65788;52.284;20.890;2023-07-22T07:24:14;99870.21;;;23.30;50.74
76827;BME280;65788;52.284;20.890;2023-07-22T07:26:41;99875.66;;;23.31;50.86
76827;BME280;65788;52.284;20.890;2023-07-22T07:29:07;99877.95;;;23.26;50.99
76827;BME280;65788;52.284;20.890;2023-07-22T07:31:34;99878.48;;;23.34;50.34
76827;BME280;65788;52.284;20.890;2023-07-22T07:34:01;99877.38;;;23.35;50.35
76827;BME280;65788;52.284;20.890;2023-07-22T07:36:29;99873.52;;;23.39;50.11
76827;BME280;65788;52.284;20.890;2023-07-22T07:38:55;99877.19;;;23.38;50.25
76827;BME280;65788;52.284;20.890;2023-07-22T07:41:22;99878.94;;;23.31;50.21
76827;BME280;65788;52.284;20.890;2023-07-22T07:43:49;99880.88;;;23.39;50.06
76827;BME280;65788;52.284;20.890;2023-07-22T07:46:21;99882.66;;;23.45;49.29
76827;BME280;65788;52.284;20.890;2023-07-22T07:48:53;99884.06;;;23.48;49.15
76827;BME280;65788;52.284;20.890;2023-07-22T07:51:22;99890.70;;;23.54;48.83
76827;BME280;65788;52.284;20.890;2023-07-22T07:53:50;99899.09;;;23.60;49.02
76827;BME280;65788;52.284;20.890;2023-07-22T07:56:18;99897.59;;;23.62;48.65
76827;BME280;65788;52.284;20.890;2023-07-22T07:58:47;99902.52;;;23.67;48.60
76827;BME280;65788;52.284;20.890;2023-07-22T08:01:14;99900.67;;;23.68;48.67
76827;BME280;65788;52.284;20.890;2023-07-22T08:03:42;99899.41;;;23.69;48.42
76827;BME280;65788;52.284;20.890;2023-07-22T08:06:10;99904.91;;;23.77;48.32
76827;BME280;65788;52.284;20.890;2023-07-22T08:08:37;99911.13;;;23.80;48.13
76827;BME280;65788;52.284;20.890;2023-07-22T08:11:09;99903.41;;;23.82;47.96
76827;BME280;65788;52.284;20.890;2023-07-22T08:13:37;99909.34;;;23.85;47.80
76827;BME280;65788;52.284;20.890;2023-07-22T08:16:06;99919.00;;;23.78;47.86
76827;BME280;65788;52.284;20.890;2023-07-22T08:18:34;99921.16;;;23.77;47.99
76827;BME280;65788;52.284;20.890;2023-07-22T08:21:03;99922.28;;;23.76;47.93
76827;BME280;65788;52.284;20.890;2023-07-22T08:23:31;99924.13;;;23.72;47.97
76827;BME280;65788;52.284;20.890;2023-07-22T08:25:58;99925.09;;;23.74;47.98
76827;BME280;65788;52.284;20.890;2023-07-22T08:28:25;99931.59;;;23.74;47.74
76827;BME280;65788;52.284;20.890;2023-07-22T08:30:56;99930.56;;;23.72;47.76
76827;BME280;65788;52.284;20.890;2023-07-22T08:33:24;99934.69;;;23.70;47.91
76827;BME280;65788;52.284;20.890;2023-07-22T08:35:51;99936.15;;;23.72;48.32
76827;BME280;65788;52.284;20.890;2023-07-22T08:38:18;99940.98;;;23.75;47.92
76827;BME280;65788;52.284;20.890;2023-07-22T08:40:49;99941.60;;;23.74;48.16
76827;BME280;65788;52.284;20.890;2023-07-22T08:43:20;99940.50;;;23.72;47.91
76827;BME280;65788;52.284;20.890;2023-07-22T08:45:48;99945.11;;;23.74;48.02
76827;BME280;65788;52.284;20.890;2023-07-22T08:48:16;99953.15;;;23.75;48.17
76827;BME280;65788;52.284;20.890;2023-07-22T08:50:45;99952.47;;;23.73;48.05
76827;BME280;65788;52.284;20.890;2023-07-22T08:53:13;99954.14;;;23.72;47.94
76827;BME280;65788;52.284;20.890;2023-07-22T08:55:41;99962.66;;;23.70;47.89
76827;BME280;65788;52.284;20.890;2023-07-22T08:58:08;99959.20;;;23.69;47.74
76827;BME280;65788;52.284;20.890;2023-07-22T09:00:37;99954.80;;;23.70;47.47
76827;BME280;65788;52.284;20.890;2023-07-22T09:03:04;99962.42;;;23.69;47.73
76827;BME280;65788;52.284;20.890;2023-07-22T09:05:33;99965.04;;;23.68;47.50
76827;BME280;65788;52.284;20.890;2023-07-22T09:08:04;99963.66;;;23.69;47.22
76827;BME280;65788;52.284;20.890;2023-07-22T09:10:33;99962.74;;;23.72;47.25
76827;BME280;65788;52.284;20.890;2023-07-22T09:13:01;99965.93;;;23.78;47.48
76827;BME280;65788;52.284;20.890;2023-07-22T09:15:29;99962.69;;;23.82;47.20
76827;BME280;65788;52.284;20.890;2023-07-22T09:17:55;99969.46;;;23.88;46.80
76827;BME280;65788;52.284;20.890;2023-07-22T09:20:22;99969.75;;;23.91;46.87
76827;BME280;65788;52.284;20.890;2023-07-22T09:22:50;99964.55;;;23.92;46.81
76827;BME280;65788;52.284;20.890;2023-07-22T09:25:19;99962.55;;;23.98;46.65
76827;BME280;65788;52.284;20.890;2023-07-22T09:27:47;99964.85;;;24.00;46.53
76827;BME280;65788;52.284;20.890;2023-07-22T09:32:56;99967.74;;;24.04;46.50
76827;BME280;65788;52.284;20.890;2023-07-22T09:35:26;99968.21;;;24.05;46.26
76827;BME280;65788;52.284;20.890;2023-07-22T09:37:54;99971.96;;;24.05;46.43
76827;BME280;65788;52.284;20.890;2023-07-22T09:40:26;99966.01;;;24.03;46.31
76827;BME280;65788;52.284;20.890;2023-07-22T09:43:01;99962.89;;;24.04;46.19
76827;BME280;65788;52.284;20.890;2023-07-22T09:45:30;99967.61;;;24.02;46.06
76827;BME280;65788;52.284;20.890;2023-07-22T09:47:58;99968.00;;;24.06;45.86
76827;BME280;65788;52.284;20.890;2023-07-22T09:50:26;99968.82;;;24.17;45.88
76827;BME280;65788;52.284;20.890;2023-07-22T09:52:54;99974.02;;;24.23;45.20
76827;BME280;65788;52.284;20.890;2023-07-22T09:55:24;99976.46;;;24.27;45.14
76827;BME280;65788;52.284;20.890;2023-07-22T09:57:55;99976.58;;;24.28;45.09
76827;BME280;65788;52.284;20.890;2023-07-22T10:00:24;99979.09;;;24.33;44.98
76827;BME280;65788;52.284;20.890;2023-07-22T10:02:52;99985.34;;;24.33;45.01
76827;BME280;65788;52.284;20.890;2023-07-22T10:05:22;99988.13;;;24.31;44.62
76827;BME280;65788;52.284;20.890;2023-07-22T10:07:55;99986.16;;;24.35;44.52
76827;BME280;65788;52.284;20.890;2023-07-22T10:10:30;99991.83;;;24.37;44.67
76827;BME280;65788;52.284;20.890;2023-07-22T10:12:57;99993.81;;;24.42;44.29
76827;BME280;65788;52.284;20.890;2023-07-22T10:15:27;99994.08;;;24.28;44.23
76827;BME280;65788;52.284;20.890;2023-07-22T10:17:55;99986.45;;;24.25;44.20
76827;BME280;65788;52.284;20.890;2023-07-22T10:20:23;99994.45;;;24.20;44.13
76827;BME280;65788;52.284;20.890;2023-07-22T10:22:51;99996.36;;;24.20;44.08
76827;BME280;65788;52.284;20.890;2023-07-22T10:25:19;99996.61;;;24.22;44.01
76827;BME280;65788;52.284;20.890;2023-07-22T10:27:48;99996.08;;;24.19;43.89
76827;BME280;65788;52.284;20.890;2023-07-22T10:30:16;99994.23;;;24.19;43.80
76827;BME280;65788;52.284;20.890;2023-07-22T10:32:51;99995.73;;;24.19;43.86
76827;BME280;65788;52.284;20.890;2023-07-22T10:38:11;99995.30;;;24.15;44.24
76827;BME280;65788;52.284;20.890;2023-07-22T10:40:53;99994.84;;;24.12;44.02
76827;BME280;65788;52.284;20.890;2023-07-22T10:43:39;100002.96;;;24.11;44.10
76827;BME280;65788;52.284;20.890;2023-07-22T10:46:09;100002.13;;;24.04;44.23
76827;BME280;65788;52.284;20.890;2023-07-22T10:48:40;100006.09;;;24.04;44.03
76827;BME280;65788;52.284;20.890;2023-07-22T10:51:14;100005.09;;;24.04;43.87
76827;BME280;65788;52.284;20.890;2023-07-22T10:53:48;100007.24;;;24.01;43.75
76827;BME280;65788;52.284;20.890;2023-07-22T10:56:21;100002.63;;;23.99;44.17
76827;BME280;65788;52.284;20.890;2023-07-22T11:12:12;100005.61;;;23.96;43.86
76827;BME280;65788;52.284;20.890;2023-07-22T11:14:50;100007.71;;;23.94;44.01
76827;BME280;65788;52.284;20.890;2023-07-22T11:17:21;100010.96;;;23.94;43.80
76827;BME280;65788;52.284;20.890;2023-07-22T11:19:55;100014.52;;;23.92;43.78
76827;BME280;65788;52.284;20.890;2023-07-22T11:22:21;100013.20;;;23.90;44.03
76827;BME280;65788;52.284;20.890;2023-07-22T11:24:49;100013.61;;;23.88;43.79
76827;BME280;65788;52.284;20.890;2023-07-22T11:27:16;100013.83;;;23.87;43.48
76827;BME280;65788;52.284;20.890;2023-07-22T11:29:43;100011.13;;;23.86;43.82
76827;BME280;65788;52.284;20.890;2023-07-22T11:32:20;100009.20;;;23.88;43.47
76827;BME280;65788;52.284;20.890;2023-07-22T11:34:51;100013.52;;;23.86;43.87
76827;BME280;65788;52.284;20.890;2023-07-22T11:37:22;100012.01;;;23.85;43.69
76827;BME280;65788;52.284;20.890;2023-07-22T11:39:49;100011.40;;;23.86;43.71
76827;BME280;65788;52.284;20.890;2023-07-22T11:42:16;100006.64;;;23.85;43.61
76827;BME280;65788;52.284;20.890;2023-07-22T11:44:44;100010.67;;;23.86;43.92
76827;BME280;65788;52.284;20.890;2023-07-22T11:47:10;100006.44;;;23.90;44.70
76827;BME280;65788;52.284;20.890;2023-07-22T11:49:40;100008.48;;;24.03;43.95
76827;BME280;65788;52.284;20.890;2023-07-22T11:52:09;100006.65;;;24.10;43.90
76827;BME280;65788;52.284;20.890;2023-07-22T11:54:41;100003.38;;;24.13;43.63
76827;BME280;65788;52.284;20.890;2023-07-22T11:57:16;99997.33;;;24.16;43.70
76827;BME280;65788;52.284;20.890;2023-07-22T12:02:15;99993.39;;;24.09;43.89
76827;BME280;65788;52.284;20.890;2023-07-22T12:04:43;99987.54;;;24.04;44.13
76827;BME280;65788;52.284;20.890;2023-07-22T12:07:31;99985.66;;;24.01;43.90
76827;BME280;65788;52.284;20.890;2023-07-22T12:10:00;99984.53;;;24.00;43.38
76827;BME280;65788;52.284;20.890;2023-07-22T12:12:43;99979.90;;;24.00;43.39
76827;BME280;65788;52.284;20.890;2023-07-22T12:15:20;99981.45;;;23.98;43.09
76827;BME280;65788;52.284;20.890;2023-07-22T12:17:52;99979.04;;;23.99;43.27
76827;BME280;65788;52.284;20.890;2023-07-22T12:20:19;99982.00;;;23.99;43.34
76827;BME280;65788;52.284;20.890;2023-07-22T12:22:49;99977.80;;;23.97;43.31
76827;BME280;65788;52.284;20.890;2023-07-22T12:25:16;99974.20;;;24.00;42.97
76827;BME280;65788;52.284;20.890;2023-07-22T12:27:44;99974.19;;;24.00;42.76
76827;BME280;65788;52.284;20.890;2023-07-22T12:30:11;99970.30;;;23.96;42.96
76827;BME280;65788;52.284;20.890;2023-07-22T12:32:38;99973.63;;;23.95;42.99
76827;BME280;65788;52.284;20.890;2023-07-22T12:35:06;99973.97;;;23.94;43.14
76827;BME280;65788;52.284;20.890;2023-07-22T12:37:34;99973.64;;;23.95;42.98
76827;BME280;65788;52.284;20.890;2023-07-22T12:40:00;99974.59;;;23.96;42.96
76827;BME280;65788;52.284;20.890;2023-07-22T12:42:27;99970.63;;;23.95;43.04
76827;BME280;65788;52.284;20.890;2023-07-22T12:44:54;99974.81;;;23.95;42.89
76827;BME280;65788;52.284;20.890;2023-07-22T12:47:21;99977.03;;;23.93;42.90
76827;BME280;65788;52.284;20.890;2023-07-22T12:49:48;99972.35;;;23.94;43.33
76827;BME280;65788;52.284;20.890;2023-07-22T12:52:15;99971.35;;;23.96;43.34
76827;BME280;65788;52.284;20.890;2023-07-22T12:54:42;99972.70;;;23.96;43.22
76827;BME280;65788;52.284;20.890;2023-07-22T12:57:08;99972.12;;;23.94;42.74
76827;BME280;65788;52.284;20.890;2023-07-22T12:59:35;99971.21;;;23.92;42.83
76827;BME280;65788;52.284;20.890;2023-07-22T13:02:02;99969.64;;;23.93;42.49
76827;BME280;65788;52.284;20.890;2023-07-22T13:04:29;99971.59;;;23.92;42.42
76827;BME280;65788;52.284;20.890;2023-07-22T13:06:55;99972.23;;;24.17;44.41
76827;BME280;65788;52.284;20.890;2023-07-22T13:09:22;99972.77;;;24.19;41.71
76827;BME280;65788;52.284;20.890;2023-07-22T13:11:48;99971.81;;;24.19;41.34
76827;BME280;65788;52.284;20.890;2023-07-22T13:14:15;99977.70;;;24.23;41.17
76827;BME280;65788;52.284;20.890;2023-07-22T13:16:44;99974.83;;;24.25;41.20